sensor_id;sensor_type;location;lat;lon;timestamp;pressure;altitude;pressure_sealevel;temperature;humidity
42945;BME280;28584;42.636;23.294;2022-09-09T00:07:15;162733.59;;;15.68;100.00
42945;BME280;28584;42.636;23.294;2022-09-09T00:12:42;162728.22;;;15.66;100.00
42945;BME280;28584;42.636;23.294;2022-09-09T00:15:19;162751.03;;;15.74;100.00
42945;BME280;28584;42.636;23.294;2022-09-09T00:22:59;162738.94;;;15.70;100.00
42945;BME280;28584;42.636;23.294;2022-09-09T00:25:50;162761.75;;;15.78;100.00
42945;BME280;28584;42.636;23.294;2022-09-09T00:28:22;162732.25;;;15.67;100.00
42945;BME280;28584;42.636;23.294;2022-09-09T00:30:48;162694.69;;;15.53;100.00
42945;BME280;28584;42.636;23.294;2022-09-09T00:33:16;162685.34;;;15.50;100.00
42945;BME280;28584;42.636;23.294;2022-09-09T00:35:51;162698.72;;;15.55;100.00
42945;BME280;28584;42.636;23.294;2022-09-09T00:38:48;162740.31;;;15.70;100.00
42945;BME280;28584;42.636;23.294;2022-09-09T00:44:16;162733.59;;;15.68;100.00
42945;BME280;28584;42.636;23.294;2022-09-09T00:52:32;162702.75;;;15.56;100.00
42945;BME280;28584;42.636;23.294;2022-09-09T00:57:37;162720.16;;;15.63;100.00
42945;BME280;28584;42.636;23.294;2022-09-09T01:00:34;162732.25;;;15.67;100.00
42945;BME280;28584;42.636;23.294;2022-09-09T01:10:54;162780.53;;;15.85;100.00
42945;BME280;28584;42.636;23.294;2022-09-09T01:13:28;162788.56;;;15.88;100.00
42945;BME280;28584;42.636;23.294;2022-09-09T01:15:59;162764.47;;;15.79;100.00
42945;BME280;28584;42.636;23.294;2022-09-09T01:18:28;162741.66;;;15.71;100.00
42945;BME280;28584;42.636;23.294;2022-09-09T01:21:08;162706.78;;;15.58;100.00
42945;BME280;28584;42.636;23.294;2022-09-09T01:23:41;162681.31;;;15.48;100.00
42945;BME280;28584;42.636;23.294;2022-09-09T01:26:26;162673.28;;;15.45;100.00
42945;BME280;28584;42.636;23.294;2022-09-09T01:28:53;161505.53;;;15.29;100.00
42945;BME280;28584;42.636;23.294;2022-09-09T01:31:36;158697.28;;;15.25;100.00
42945;BME280;28584;42.636;23.294;2022-09-09T01:34:04;155376.97;;;15.19;100.00
42945;BME280;28584;42.636;23.294;2022-09-09T01:36:40;149053.41;;;15.11;100.00
42945;BME280;28584;42.636;23.294;2022-09-09T01:39:08;142945.00;;;15.03;100.00
42945;BME280;28584;42.636;23.294;2022-09-09T01:41:33;136538.19;;;15.02;100.00
42945;BME280;28584;42.636;23.294;2022-09-09T01:43:59;129840.03;;;14.91;100.00
42945;BME280;28584;42.636;23.294;2022-09-09T01:46:30;124669.13;;;14.90;100.00
42945;BME280;28584;42.636;23.294;2022-09-09T01:48:57;121087.66;;;14.88;100.00
42945;BME280;28584;42.636;23.294;2022-09-09T01:51:24;116531.41;;;14.87;100.00
42945;BME280;28584;42.636;23.294;2022-09-09T01:53:49;113145.72;;;14.81;100.00
42945;BME280;28584;42.636;23.294;2022-09-09T02:04:25;105585.97;;;14.80;100.00
42945;BME280;28584;42.636;23.294;2022-09-09T02:06:55;103866.41;;;14.78;100.00
42945;BME280;28584;42.636;23.294;2022-09-09T02:09:24;104467.16;;;14.87;100.00
42945;BME280;28584;42.636;23.294;2022-09-09T02:11:52;107743.53;;;14.94;100.00
42945;BME280;28584;42.636;23.294;2022-09-09T02:14:25;113536.66;;;14.92;100.00
42945;BME280;28584;42.636;23.294;2022-09-09T02:16:58;118697.28;;;14.89;100.00
42945;BME280;28584;42.636;23.294;2022-09-09T02:19:46;125248.84;;;14.81;100.00
42945;BME280;28584;42.636;23.294;2022-09-09T02:22:17;124769.28;;;14.82;100.00
42945;BME280;28584;42.636;23.294;2022-09-09T02:24:43;123584.81;;;14.75;100.00
42945;BME280;28584;42.636;23.294;2022-09-09T02:27:12;118919.13;;;14.65;100.00
42945;BME280;28584;42.636;23.294;2022-09-09T02:29:41;113759.78;;;14.50;100.00
42945;BME280;28584;42.636;23.294;2022-09-09T02:32:11;108808.38;;;14.64;100.00
42945;BME280;28584;42.636;23.294;2022-09-09T02:34:45;110206.81;;;14.74;100.00
42945;BME280;28584;42.636;23.294;2022-09-09T02:37:15;112490.66;;;14.75;100.00
42945;BME280;28584;42.636;23.294;2022-09-09T02:39:42;114146.38;;;14.72;100.00
42945;BME280;28584;42.636;23.294;2022-09-09T02:42:08;117429.50;;;14.69;100.00
42945;BME280;28584;42.636;23.294;2022-09-09T02:44:34;119653.16;;;14.68;100.00
42945;BME280;28584;42.636;23.294;2022-09-09T02:47:24;119601.06;;;14.81;100.00
42945;BME280;28584;42.636;23.294;2022-09-09T02:55:17;130523.84;;;14.80;100.00
42945;BME280;28584;42.636;23.294;2022-09-09T02:57:46;128120.25;;;14.78;100.00
42945;BME280;28584;42.636;23.294;2022-09-09T03:00:13;125430.03;;;14.72;100.00
42945;BME280;28584;42.636;23.294;2022-09-09T03:02:38;123723.63;;;14.71;100.00
42945;BME280;28584;42.636;23.294;2022-09-09T03:05:05;120937.34;;;14.62;100.00
42945;BME280;28584;42.636;23.294;2022-09-09T03:07:31;116017.03;;;14.60;100.00
42945;BME280;28584;42.636;23.294;2022-09-09T03:09:56;112778.88;;;14.46;100.00
42945;BME280;28584;42.636;23.294;2022-09-09T03:12:23;107949.94;;;14.41;100.00
42945;BME280;28584;42.636;23.294;2022-09-09T03:14:48;104800.22;;;14.48;100.00
42945;BME280;28584;42.636;23.294;2022-09-09T03:17:15;103279.84;;;14.55;100.00
42945;BME280;28584;42.636;23.294;2022-09-09T03:19:40;104058.91;;;14.61;100.00
42945;BME280;28584;42.636;23.294;2022-09-09T03:22:06;105827.59;;;14.65;100.00
42945;BME280;28584;42.636;23.294;2022-09-09T03:24:33;108011.34;;;14.69;100.00
42945;BME280;28584;42.636;23.294;2022-09-09T03:26:58;110427.75;;;14.74;100.00
42945;BME280;28584;42.636;23.294;2022-09-09T03:29:23;112629.75;;;14.65;100.00
42945;BME280;28584;42.636;23.294;2022-09-09T03:31:49;113239.50;;;14.60;100.00
42945;BME280;28584;42.636;23.294;2022-09-09T03:34:15;112188.69;;;14.40;100.00
42945;BME280;28584;42.636;23.294;2022-09-09T03:36:41;108900.06;;;14.38;100.00
42945;BME280;28584;42.636;23.294;2022-09-09T03:39:06;106165.09;;;14.28;100.00
42945;BME280;28584;42.636;23.294;2022-09-09T03:41:31;103388.72;;;14.27;100.00
42945;BME280;28584;42.636;23.294;2022-09-09T03:43:57;100546.38;;;14.23;100.00
42945;BME280;28584;42.636;23.294;2022-09-09T03:46:24;97566.91;;;14.21;100.00
42945;BME280;28584;42.636;23.294;2022-09-09T03:48:49;95227.63;;;14.15;100.00
42945;BME280;28584;42.636;23.294;2022-09-09T03:51:16;92485.34;;;14.29;100.00
42945;BME280;28584;42.636;23.294;2022-09-09T03:53:42;91259.41;;;14.33;100.00
42945;BME280;28584;42.636;23.294;2022-09-09T03:56:08;90922.16;;;14.43;100.00
42945;BME280;28584;42.636;23.294;2022-09-09T03:58:34;90970.28;;;14.25;100.00
42945;BME280;28584;42.636;23.294;2022-09-09T04:03:27;89475.84;;;14.20;100.00
42945;BME280;28584;42.636;23.294;2022-09-09T04:05:55;88418.25;;;14.25;100.00
42945;BME280;28584;42.636;23.294;2022-09-09T04:08:21;87699.19;;;14.26;100.00
42945;BME280;28584;42.636;23.294;2022-09-09T04:10:49;86983.88;;;14.30;100.00
42945;BME280;28584;42.636;23.294;2022-09-09T04:13:16;86113.97;;;14.43;100.00
42945;BME280;28584;42.636;23.294;2022-09-09T04:15:49;86628.81;;;14.62;100.00
42945;BME280;28584;42.636;23.294;2022-09-09T04:18:15;88630.75;;;14.71;100.00
42945;BME280;28584;42.636;23.294;2022-09-09T04:20:40;91551.38;;;14.87;100.00
42945;BME280;28584;42.636;23.294;2022-09-09T04:23:08;97370.91;;;15.07;100.00
42945;BME280;28584;42.636;23.294;2022-09-09T04:25:34;108809.53;;;15.21;100.00
42945;BME280;28584;42.636;23.294;2022-09-09T04:27:59;121699.06;;;15.37;100.00
42945;BME280;28584;42.636;23.294;2022-09-09T04:30:25;134819.81;;;15.56;100.00
42945;BME280;28584;42.636;23.294;2022-09-09T04:32:50;145127.63;;;15.79;100.00
42945;BME280;28584;42.636;23.294;2022-09-09T04:35:16;158406.66;;;16.01;100.00
42945;BME280;28584;42.636;23.294;2022-09-09T04:37:41;162885.19;;;16.24;100.00
42945;BME280;28584;42.636;23.294;2022-09-09T04:40:08;162928.09;;;16.40;100.00
42945;BME280;28584;42.636;23.294;2022-09-09T04:42:38;162920.03;;;16.37;100.00
42945;BME280;28584;42.636;23.294;2022-09-09T04:45:05;162926.78;;;16.40;100.00
42945;BME280;28584;42.636;23.294;2022-09-09T04:47:32;162967.06;;;16.55;100.00
42945;BME280;28584;42.636;23.294;2022-09-09T04:49:58;162987.22;;;16.63;100.00
42945;BME280;28584;42.636;23.294;2022-09-09T04:52:23;163036.88;;;16.81;100.00
42945;BME280;28584;42.636;23.294;2022-09-09T04:54:48;163078.50;;;16.97;100.00
42945;BME280;28584;42.636;23.294;2022-09-09T04:57:14;163169.75;;;17.31;100.00
42945;BME280;28584;42.636;23.294;2022-09-09T04:59:39;163271.84;;;17.69;100.00
42945;BME280;28584;42.636;23.294;2022-09-09T05:02:05;163355.13;;;18.00;100.00
42945;BME280;28584;42.636;23.294;2022-09-09T05:04:31;163478.81;;;18.46;100.00
42945;BME280;28584;42.636;23.294;2022-09-09T05:06:56;163610.50;;;18.95;100.00
42945;BME280;28584;42.636;23.294;2022-09-09T05:09:22;163701.97;;;19.29;100.00
42945;BME280;28584;42.636;23.294;2022-09-09T05:11:47;163724.84;;;19.38;100.00
42945;BME280;28584;42.636;23.294;2022-09-09T05:14:13;163790.69;;;19.62;100.00
42945;BME280;28584;42.636;23.294;2022-09-09T05:16:39;163680.38;;;19.21;100.00
42945;BME280;28584;42.636;23.294;2022-09-09T05:19:05;163685.78;;;19.23;100.00
42945;BME280;28584;42.636;23.294;2022-09-09T05:21:33;163828.34;;;19.76;100.00
42945;BME280;28584;42.636;23.294;2022-09-09T05:23:58;164016.72;;;20.46;100.00
42945;BME280;28584;42.636;23.294;2022-09-09T05:26:26;164224.09;;;21.23;100.00
42945;BME280;28584;42.636;23.294;2022-09-09T05:28:51;164387.06;;;21.84;100.00
42945;BME280;28584;42.636;23.294;2022-09-09T05:31:18;164577.06;;;22.55;99.68
42945;BME280;28584;42.636;23.294;2022-09-09T05:33:45;164717.22;;;23.07;87.70
42945;BME280;28584;42.636;23.294;2022-09-09T05:36:16;164698.34;;;23.00;80.56
42945;BME280;28584;42.636;23.294;2022-09-09T05:38:42;164377.63;;;21.81;100.00
42945;BME280;28584;42.636;23.294;2022-09-09T05:41:09;164562.19;;;22.49;96.99
42945;BME280;28584;42.636;23.294;2022-09-09T05:43:36;164440.91;;;22.04;96.93
42945;BME280;28584;42.636;23.294;2022-09-09T05:46:03;164264.47;;;21.38;100.00
42945;BME280;28584;42.636;23.294;2022-09-09T05:48:31;163987.13;;;20.35;100.00
42945;BME280;28584;42.636;23.294;2022-09-09T05:50:58;164047.69;;;20.58;100.00
42945;BME280;28584;42.636;23.294;2022-09-09T05:53:23;164181.00;;;21.07;100.00
42945;BME280;28584;42.636;23.294;2022-09-09T05:55:49;164357.41;;;21.73;100.00
42945;BME280;28584;42.636;23.294;2022-09-09T05:58:14;164372.25;;;21.79;100.00
42945;BME280;28584;42.636;23.294;2022-09-09T06:00:42;164318.34;;;21.58;100.00
42945;BME280;28584;42.636;23.294;2022-09-09T06:03:12;164438.22;;;22.03;96.20
42945;BME280;28584;42.636;23.294;2022-09-09T06:05:37;164488.06;;;22.22;94.52
42945;BME280;28584;42.636;23.294;2022-09-09T06:08:03;164539.25;;;22.41;90.03
42945;BME280;28584;42.636;23.294;2022-09-09T06:10:29;164418.00;;;21.96;96.21
42945;BME280;28584;42.636;23.294;2022-09-09T06:12:54;164583.78;;;22.57;91.35
42945;BME280;28584;42.636;23.294;2022-09-09T06:15:19;164470.59;;;22.15;97.92
42945;BME280;28584;42.636;23.294;2022-09-09T06:17:45;164480.00;;;22.19;89.76
42945;BME280;28584;42.636;23.294;2022-09-09T06:20:10;164594.56;;;22.61;89.10
42945;BME280;28584;42.636;23.294;2022-09-09T06:22:39;164841.28;;;23.53;79.41
42945;BME280;28584;42.636;23.294;2022-09-09T06:25:06;165024.75;;;24.21;68.76
42945;BME280;28584;42.636;23.294;2022-09-09T06:27:32;165185.31;;;24.81;64.40
42945;BME280;28584;42.636;23.294;2022-09-09T06:29:58;165270.34;;;25.12;62.11
42945;BME280;28584;42.636;23.294;2022-09-09T06:32:23;164978.88;;;24.04;63.61
42945;BME280;28584;42.636;23.294;2022-09-09T06:34:49;165108.34;;;24.52;66.16
42945;BME280;28584;42.636;23.294;2022-09-09T06:37:14;165102.97;;;24.50;62.73
42945;BME280;28584;42.636;23.294;2022-09-09T06:39:41;164879.03;;;23.67;70.61
42945;BME280;28584;42.636;23.294;2022-09-09T06:42:07;164857.47;;;23.59;69.21
42945;BME280;28584;42.636;23.294;2022-09-09T06:44:33;164791.38;;;23.34;76.48
42945;BME280;28584;42.636;23.294;2022-09-09T06:46:59;164970.78;;;24.01;73.30
42945;BME280;28584;42.636;23.294;2022-09-09T06:49:24;165200.16;;;24.86;65.98
42945;BME280;28584;42.636;23.294;2022-09-09T06:51:49;164885.75;;;23.69;69.39
42945;BME280;28584;42.636;23.294;2022-09-09T06:54:17;165096.25;;;24.48;68.18
42945;BME280;28584;42.636;23.294;2022-09-09T06:56:43;165381.09;;;25.53;61.32
42945;BME280;28584;42.636;23.294;2022-09-09T06:59:10;165510.78;;;26.01;58.17
42945;BME280;28584;42.636;23.294;2022-09-09T07:01:42;165305.44;;;25.25;59.29
42945;BME280;28584;42.636;23.294;2022-09-09T07:04:12;165152.97;;;24.69;63.59
42945;BME280;28584;42.636;23.294;2022-09-09T07:06:43;165094.88;;;24.47;64.96
42945;BME280;28584;42.636;23.294;2022-09-09T07:09:12;165086.78;;;24.44;64.81
42945;BME280;28584;42.636;23.294;2022-09-09T07:11:40;165320.34;;;25.31;61.25
42945;BME280;28584;42.636;23.294;2022-09-09T07:14:07;165562.06;;;26.20;57.50
42945;BME280;28584;42.636;23.294;2022-09-09T07:16:33;165709.34;;;26.75;54.77
42945;BME280;28584;42.636;23.294;2022-09-09T07:19:00;165529.66;;;26.08;54.95
42945;BME280;28584;42.636;23.294;2022-09-09T07:21:27;165409.41;;;25.64;57.63
42945;BME280;28584;42.636;23.294;2022-09-09T07:23:53;165533.72;;;26.10;56.05
42945;BME280;28584;42.636;23.294;2022-09-09T07:26:22;165524.25;;;26.06;54.53
42945;BME280;28584;42.636;23.294;2022-09-09T07:28:48;165751.22;;;26.91;53.10
42945;BME280;28584;42.636;23.294;2022-09-09T07:31:18;165897.22;;;27.45;51.72
42945;BME280;28584;42.636;23.294;2022-09-09T07:33:46;166021.63;;;27.91;49.99
42945;BME280;28584;42.636;23.294;2022-09-09T07:36:17;166044.59;;;27.99;49.75
42945;BME280;28584;42.636;23.294;2022-09-09T07:38:48;166146.00;;;28.37;48.60
42945;BME280;28584;42.636;23.294;2022-09-09T07:43:46;165628.25;;;26.45;52.11
42945;BME280;28584;42.636;23.294;2022-09-09T07:46:15;165613.41;;;26.39;52.92
42945;BME280;28584;42.636;23.294;2022-09-09T07:48:45;166024.31;;;27.92;50.00
42945;BME280;28584;42.636;23.294;2022-09-09T07:51:17;166152.81;;;28.39;49.22
42945;BME280;28584;42.636;23.294;2022-09-09T07:53:44;165555.31;;;26.18;53.00
42945;BME280;28584;42.636;23.294;2022-09-09T07:56:15;165810.69;;;27.13;50.68
42945;BME280;28584;42.636;23.294;2022-09-09T07:58:42;165743.09;;;26.88;51.48
42945;BME280;28584;42.636;23.294;2022-09-09T08:01:14;166183.97;;;28.51;48.96
42945;BME280;28584;42.636;23.294;2022-09-09T08:03:43;166281.31;;;28.87;46.13
42945;BME280;28584;42.636;23.294;2022-09-09T08:06:10;166139.25;;;28.34;46.47
42945;BME280;28584;42.636;23.294;2022-09-09T08:08:37;166045.97;;;28.00;47.53
42945;BME280;28584;42.636;23.294;2022-09-09T08:11:14;165756.66;;;26.93;49.93
42945;BME280;28584;42.636;23.294;2022-09-09T08:13:41;166073.03;;;28.10;47.36
42945;BME280;28584;42.636;23.294;2022-09-09T08:18:34;165867.50;;;27.34;48.80
42945;BME280;28584;42.636;23.294;2022-09-09T08:21:12;165864.78;;;27.33;48.44
42945;BME280;28584;42.636;23.294;2022-09-09T08:23:42;165863.44;;;27.32;49.00
42945;BME280;28584;42.636;23.294;2022-09-09T08:28:36;165786.34;;;27.04;50.00
42945;BME280;28584;42.636;23.294;2022-09-09T08:31:09;165971.53;;;27.72;48.22
42945;BME280;28584;42.636;23.294;2022-09-09T08:33:35;165797.16;;;27.08;49.32
42945;BME280;28584;42.636;23.294;2022-09-09T08:36:02;166002.69;;;27.84;48.15
42945;BME280;28584;42.636;23.294;2022-09-09T08:38:28;166005.38;;;27.85;47.82
42945;BME280;28584;42.636;23.294;2022-09-09T08:40:59;165664.72;;;26.58;49.24
42945;BME280;28584;42.636;23.294;2022-09-09T08:43:27;165655.28;;;26.55;50.49
42945;BME280;28584;42.636;23.294;2022-09-09T08:46:23;165867.50;;;27.34;48.95
42945;BME280;28584;42.636;23.294;2022-09-09T08:49:18;166035.16;;;27.96;47.96
42945;BME280;28584;42.636;23.294;2022-09-09T08:51:46;166292.16;;;28.91;46.05
42945;BME280;28584;42.636;23.294;2022-09-09T08:54:14;166390.94;;;29.28;45.30
42945;BME280;28584;42.636;23.294;2022-09-09T08:56:40;166430.22;;;29.42;44.14
42945;BME280;28584;42.636;23.294;2022-09-09T08:59:05;166466.72;;;29.56;45.16
42945;BME280;28584;42.636;23.294;2022-09-09T09:01:54;166584.50;;;29.99;43.75
42945;BME280;28584;42.636;23.294;2022-09-09T09:12:44;166638.72;;;30.19;40.78
42945;BME280;28584;42.636;23.294;2022-09-09T09:15:21;166642.78;;;30.21;41.87
42945;BME280;28584;42.636;23.294;2022-09-09T09:17:48;166487.09;;;29.63;42.45
42945;BME280;28584;42.636;23.294;2022-09-09T09:20:15;166297.56;;;28.93;43.57
42945;BME280;28584;42.636;23.294;2022-09-09T09:22:50;166305.69;;;28.96;43.35
42945;BME280;28584;42.636;23.294;2022-09-09T09:28:31;166407.19;;;29.34;43.47
42945;BME280;28584;42.636;23.294;2022-09-09T09:31:11;166219.09;;;28.64;44.91
42945;BME280;28584;42.636;23.294;2022-09-09T09:33:47;165798.53;;;27.08;47.05
42945;BME280;28584;42.636;23.294;2022-09-09T09:36:15;166001.31;;;27.83;45.37
42945;BME280;28584;42.636;23.294;2022-09-09T09:38:53;166077.09;;;28.11;44.83
42945;BME280;28584;42.636;23.294;2022-09-09T09:41:38;166194.78;;;28.55;43.92
42945;BME280;28584;42.636;23.294;2022-09-09T09:44:04;166252.91;;;28.76;43.73
42945;BME280;28584;42.636;23.294;2022-09-09T09:46:31;166308.38;;;28.97;43.01
42945;BME280;28584;42.636;23.294;2022-09-09T09:49:04;166435.59;;;29.44;42.21
42945;BME280;28584;42.636;23.294;2022-09-09T09:51:31;166133.88;;;28.32;44.42
42945;BME280;28584;42.636;23.294;2022-09-09T09:54:27;166119.00;;;28.27;44.01
42945;BME280;28584;42.636;23.294;2022-09-09T09:56:54;166181.22;;;28.50;43.97
42945;BME280;28584;42.636;23.294;2022-09-09T10:01:54;166256.97;;;28.78;42.80
42945;BME280;28584;42.636;23.294;2022-09-09T10:04:21;166177.16;;;28.48;43.02
42945;BME280;28584;42.636;23.294;2022-09-09T10:06:49;166133.88;;;28.32;43.72
42945;BME280;28584;42.636;23.294;2022-09-09T10:19:36;165936.44;;;27.59;45.65
42945;BME280;28584;42.636;23.294;2022-09-09T10:24:41;165926.97;;;27.56;46.88
42945;BME280;28584;42.636;23.294;2022-09-09T10:30:36;165562.06;;;26.20;48.49
42945;BME280;28584;42.636;23.294;2022-09-09T10:33:10;165710.69;;;26.76;48.00
42945;BME280;28584;42.636;23.294;2022-09-09T10:38:42;165724.19;;;26.81;47.66
42945;BME280;28584;42.636;23.294;2022-09-09T10:41:29;165405.38;;;25.62;50.63
42945;BME280;28584;42.636;23.294;2022-09-09T10:44:15;165340.56;;;25.38;51.64
42945;BME280;28584;42.636;23.294;2022-09-09T10:55:00;165630.94;;;26.46;48.48
42945;BME280;28584;42.636;23.294;2022-09-09T10:57:33;165670.19;;;26.61;48.94
42945;BME280;28584;42.636;23.294;2022-09-09T11:00:04;165608.00;;;26.37;49.40
42945;BME280;28584;42.636;23.294;2022-09-09T11:02:33;165697.16;;;26.71;49.07
42945;BME280;28584;42.636;23.294;2022-09-09T11:05:08;165675.56;;;26.63;49.15
42945;BME280;28584;42.636;23.294;2022-09-09T11:07:56;165853.97;;;27.29;47.50
42945;BME280;28584;42.636;23.294;2022-09-09T11:12:57;165978.34;;;27.75;46.48
42945;BME280;28584;42.636;23.294;2022-09-09T11:15:51;166160.94;;;28.42;45.53
42945;BME280;28584;42.636;23.294;2022-09-09T11:18:21;166309.72;;;28.97;43.98
42945;BME280;28584;42.636;23.294;2022-09-09T11:20:55;166411.25;;;29.35;44.30
42945;BME280;28584;42.636;23.294;2022-09-09T11:23:54;166408.56;;;29.34;43.30
42945;BME280;28584;42.636;23.294;2022-09-09T11:26:30;166377.44;;;29.23;43.61
42945;BME280;28584;42.636;23.294;2022-09-09T11:42:16;166240.78;;;28.72;44.44
42945;BME280;28584;42.636;23.294;2022-09-09T11:44:43;166189.34;;;28.53;45.03
42945;BME280;28584;42.636;23.294;2022-09-09T11:47:35;166105.44;;;28.22;45.75
42945;BME280;28584;42.636;23.294;2022-09-09T11:53:23;165891.81;;;27.43;47.90
42945;BME280;28584;42.636;23.294;2022-09-09T11:56:03;165835.00;;;27.22;48.67
42945;BME280;28584;42.636;23.294;2022-09-09T11:58:35;165909.41;;;27.49;48.48
42945;BME280;28584;42.636;23.294;2022-09-09T12:01:13;165802.59;;;27.10;49.55
42945;BME280;28584;42.636;23.294;2022-09-09T12:04:46;165967.50;;;27.71;47.49
42945;BME280;28584;42.636;23.294;2022-09-09T12:06:57;166035.16;;;27.96;47.48
42945;BME280;28584;42.636;23.294;2022-09-09T12:17:19;166277.28;;;28.85;46.15
42945;BME280;28584;42.636;23.294;2022-09-09T12:19:46;166284.03;;;28.88;45.87
42945;BME280;28584;42.636;23.294;2022-09-09T12:22:25;166267.78;;;28.82;45.50
42945;BME280;28584;42.636;23.294;2022-09-09T12:25:27;166270.53;;;28.83;45.88
42945;BME280;28584;42.636;23.294;2022-09-09T12:28:15;166328.69;;;29.05;46.72
42945;BME280;28584;42.636;23.294;2022-09-09T12:30:58;166311.06;;;28.98;45.63
42945;BME280;28584;42.636;23.294;2022-09-09T12:33:35;166311.06;;;28.98;45.16
42945;BME280;28584;42.636;23.294;2022-09-09T12:36:02;166304.31;;;28.95;45.62
42945;BME280;28584;42.636;23.294;2022-09-09T12:38:36;166247.53;;;28.74;46.05
42945;BME280;28584;42.636;23.294;2022-09-09T12:41:05;166210.97;;;28.61;47.34
42945;BME280;28584;42.636;23.294;2022-09-09T12:43:31;166154.13;;;28.40;46.81
42945;BME280;28584;42.636;23.294;2022-09-09T12:46:03;166205.59;;;28.59;46.43
42945;BME280;28584;42.636;23.294;2022-09-09T12:48:37;166231.28;;;28.68;46.52
42945;BME280;28584;42.636;23.294;2022-09-09T12:51:05;166256.97;;;28.78;47.05
42945;BME280;28584;42.636;23.294;2022-09-09T12:53:36;166256.97;;;28.78;46.62
42945;BME280;28584;42.636;23.294;2022-09-09T12:56:07;166232.66;;;28.69;46.90
42945;BME280;28584;42.636;23.294;2022-09-09T12:58:33;166224.53;;;28.66;47.05
42945;BME280;28584;42.636;23.294;2022-09-09T13:01:02;166244.81;;;28.73;47.81
42945;BME280;28584;42.636;23.294;2022-09-09T13:03:31;166170.41;;;28.46;47.76
42945;BME280;28584;42.636;23.294;2022-09-09T13:06:24;166210.97;;;28.61;47.84
42945;BME280;28584;42.636;23.294;2022-09-09T13:08:51;166124.38;;;28.29;47.76
42945;BME280;28584;42.636;23.294;2022-09-09T13:11:41;166001.31;;;27.83;49.30
42945;BME280;28584;42.636;23.294;2022-09-09T13:14:16;166004.06;;;27.84;49.51
42945;BME280;28584;42.636;23.294;2022-09-09T13:16:55;166035.16;;;27.96;48.84
42945;BME280;28584;42.636;23.294;2022-09-09T13:19:21;166082.47;;;28.13;50.04
42945;BME280;28584;42.636;23.294;2022-09-09T13:21:47;166101.38;;;28.20;48.83
42945;BME280;28584;42.636;23.294;2022-09-09T13:24:32;166050.03;;;28.01;49.36
42945;BME280;28584;42.636;23.294;2022-09-09T13:27:20;166058.16;;;28.04;49.39
42945;BME280;28584;42.636;23.294;2022-09-09T13:29:53;166132.50;;;28.32;50.03
42945;BME280;28584;42.636;23.294;2022-09-09T13:32:23;166089.22;;;28.16;49.84
42945;BME280;28584;42.636;23.294;2022-09-09T13:35:00;165921.53;;;27.54;51.44
42945;BME280;28584;42.636;23.294;2022-09-09T13:37:37;165928.31;;;27.56;51.97
42945;BME280;28584;42.636;23.294;2022-09-09T13:40:05;165909.41;;;27.49;51.49
42945;BME280;28584;42.636;23.294;2022-09-09T13:42:33;165918.84;;;27.53;52.43
42945;BME280;28584;42.636;23.294;2022-09-09T13:45:00;165978.34;;;27.75;50.05
42945;BME280;28584;42.636;23.294;2022-09-09T13:47:35;166054.09;;;28.03;49.93
42945;BME280;28584;42.636;23.294;2022-09-09T13:52:47;166219.09;;;28.64;49.62
42945;BME280;28584;42.636;23.294;2022-09-09T13:55:14;166270.53;;;28.83;49.67
42945;BME280;28584;42.636;23.294;2022-09-09T13:57:59;166324.69;;;29.03;48.82
42945;BME280;28584;42.636;23.294;2022-09-09T14:00:32;166454.53;;;29.51;47.76
42945;BME280;28584;42.636;23.294;2022-09-09T14:02:58;166524.97;;;29.77;46.48
42945;BME280;28584;42.636;23.294;2022-09-09T14:05:27;166549.38;;;29.86;45.99
42945;BME280;28584;42.636;23.294;2022-09-09T14:07:54;166543.91;;;29.84;46.13
42945;BME280;28584;42.636;23.294;2022-09-09T14:10:19;166524.97;;;29.77;45.83
42945;BME280;28584;42.636;23.294;2022-09-09T14:12:46;166499.28;;;29.68;45.14
42945;BME280;28584;42.636;23.294;2022-09-09T14:15:12;166411.25;;;29.35;45.46
42945;BME280;28584;42.636;23.294;2022-09-09T14:17:37;166338.19;;;29.08;46.40
42945;BME280;28584;42.636;23.294;2022-09-09T14:20:03;166097.34;;;28.19;48.66
42945;BME280;28584;42.636;23.294;2022-09-09T14:22:33;166016.25;;;27.89;49.54
42945;BME280;28584;42.636;23.294;2022-09-09T14:24:58;165971.53;;;27.72;49.30
42945;BME280;28584;42.636;23.294;2022-09-09T14:27:24;165962.09;;;27.69;50.39
42945;BME280;28584;42.636;23.294;2022-09-09T14:29:51;165948.56;;;27.64;51.08
42945;BME280;28584;42.636;23.294;2022-09-09T14:32:17;165932.38;;;27.58;50.69
42945;BME280;28584;42.636;23.294;2022-09-09T14:34:42;165910.72;;;27.50;50.68
42945;BME280;28584;42.636;23.294;2022-09-09T14:37:07;165856.72;;;27.30;51.14
42945;BME280;28584;42.636;23.294;2022-09-09T14:39:33;165789.03;;;27.05;51.94
42945;BME280;28584;42.636;23.294;2022-09-09T14:41:58;165648.50;;;26.52;53.07
42945;BME280;28584;42.636;23.294;2022-09-09T14:44:24;165510.78;;;26.01;54.73
42945;BME280;28584;42.636;23.294;2022-09-09T14:46:49;165502.66;;;25.98;55.19
42945;BME280;28584;42.636;23.294;2022-09-09T14:49:19;165470.16;;;25.86;55.67
42945;BME280;28584;42.636;23.294;2022-09-09T14:51:44;165448.59;;;25.78;56.26
42945;BME280;28584;42.636;23.294;2022-09-09T14:54:10;165413.47;;;25.65;57.27
42945;BME280;28584;42.636;23.294;2022-09-09T14:56:35;165363.50;;;25.47;58.83
42945;BME280;28584;42.636;23.294;2022-09-09T14:59:01;165368.94;;;25.49;60.46